sensor_id;sensor_type;location;lat;lon;timestamp;pressure;altitude;pressure_sealevel;temperature;humidity
18167;BME280;9208;42.688;23.404;2023-03-13T00:01:18;95744.22;;;4.44;76.24
18167;BME280;9208;42.688;23.404;2023-03-13T00:03:45;95742.16;;;4.36;76.09
18167;BME280;9208;42.688;23.404;2023-03-13T00:06:10;95735.72;;;4.30;76.08
18167;BME280;9208;42.688;23.404;2023-03-13T00:08:36;95734.97;;;4.29;77.12
18167;BME280;9208;42.688;23.404;2023-03-13T00:11:03;95735.63;;;4.33;76.75
18167;BME280;9208;42.688;23.404;2023-03-13T00:13:29;95732.81;;;4.37;76.57
18167;BME280;9208;42.688;23.404;2023-03-13T00:16:06;95736.81;;;4.32;77.16
18167;BME280;9208;42.688;23.404;2023-03-13T00:18:32;95734.09;;;4.32;76.71
18167;BME280;9208;42.688;23.404;2023-03-13T00:20:59;95730.97;;;4.34;76.91
18167;BME280;9208;42.688;23.404;2023-03-13T00:23:26;95741.75;;;4.21;77.88
18167;BME280;9208;42.688;23.404;2023-03-13T00:25:57;95738.66;;;4.35;77.34
18167;BME280;9208;42.688;23.404;2023-03-13T00:28:23;95743.78;;;4.33;77.40
18167;BME280;9208;42.688;23.404;2023-03-13T00:30:48;95747.13;;;4.25;77.31
18167;BME280;9208;42.688;23.404;2023-03-13T00:33:14;95744.81;;;4.23;78.14
18167;BME280;9208;42.688;23.404;2023-03-13T00:35:39;95743.28;;;4.22;77.82
18167;BME280;9208;42.688;23.404;2023-03-13T00:38:04;95743.53;;;4.28;77.96
18167;BME280;9208;42.688;23.404;2023-03-13T00:40:30;95740.69;;;4.31;77.52
18167;BME280;9208;42.688;23.404;2023-03-13T00:42:55;95748.91;;;4.44;77.22
18167;BME280;9208;42.688;23.404;2023-03-13T00:45:21;95744.88;;;4.48;77.08
18167;BME280;9208;42.688;23.404;2023-03-13T00:47:46;95752.03;;;4.42;76.78
18167;BME280;9208;42.688;23.404;2023-03-13T00:50:14;95746.91;;;4.32;76.89
18167;BME280;9208;42.688;23.404;2023-03-13T00:52:39;95739.66;;;4.41;77.04
18167;BME280;9208;42.688;23.404;2023-03-13T00:55:05;95742.69;;;4.43;77.46
18167;BME280;9208;42.688;23.404;2023-03-13T00:57:31;95740.41;;;4.42;77.26
18167;BME280;9208;42.688;23.404;2023-03-13T00:59:56;95734.00;;;4.36;77.42
18167;BME280;9208;42.688;23.404;2023-03-13T01:02:22;95734.31;;;4.38;77.98
18167;BME280;9208;42.688;23.404;2023-03-13T01:04:47;95742.25;;;4.32;78.26
18167;BME280;9208;42.688;23.404;2023-03-13T01:07:13;95734.63;;;4.27;78.28
18167;BME280;9208;42.688;23.404;2023-03-13T01:09:38;95741.75;;;4.21;78.16
18167;BME280;9208;42.688;23.404;2023-03-13T01:12:03;95733.16;;;4.10;79.04
18167;BME280;9208;42.688;23.404;2023-03-13T01:14:29;95728.72;;;4.16;79.05
18167;BME280;9208;42.688;23.404;2023-03-13T01:16:54;95732.97;;;4.17;78.96
18167;BME280;9208;42.688;23.404;2023-03-13T01:19:20;95730.25;;;4.17;79.53
18167;BME280;9208;42.688;23.404;2023-03-13T01:21:45;95718.72;;;4.13;80.05
18167;BME280;9208;42.688;23.404;2023-03-13T01:24:11;95721.97;;;4.08;80.72
18167;BME280;9208;42.688;23.404;2023-03-13T01:26:37;95708.63;;;3.85;81.85
18167;BME280;9208;42.688;23.404;2023-03-13T01:29:03;95712.66;;;3.81;82.02
18167;BME280;9208;42.688;23.404;2023-03-13T01:31:31;95701.66;;;3.56;83.94
18167;BME280;9208;42.688;23.404;2023-03-13T01:33:58;95696.09;;;3.47;84.49
18167;BME280;9208;42.688;23.404;2023-03-13T01:36:25;95692.78;;;3.55;84.50
18167;BME280;9208;42.688;23.404;2023-03-13T01:38:53;95696.34;;;3.52;85.46
18167;BME280;9208;42.688;23.404;2023-03-13T01:41:20;95693.13;;;3.41;86.50
18167;BME280;9208;42.688;23.404;2023-03-13T01:43:46;95695.94;;;3.38;87.10
18167;BME280;9208;42.688;23.404;2023-03-13T01:46:15;95688.91;;;3.40;87.03
18167;BME280;9208;42.688;23.404;2023-03-13T01:48:57;95682.16;;;3.16;88.45
18167;BME280;9208;42.688;23.404;2023-03-13T01:51:41;95678.34;;;3.14;88.84
18167;BME280;9208;42.688;23.404;2023-03-13T01:54:21;95676.91;;;3.09;89.34
18167;BME280;9208;42.688;23.404;2023-03-13T01:56:53;95681.22;;;3.07;89.05
18167;BME280;9208;42.688;23.404;2023-03-13T01:59:31;95671.81;;;2.95;89.50
18167;BME280;9208;42.688;23.404;2023-03-13T02:02:00;95669.19;;;2.92;88.35
18167;BME280;9208;42.688;23.404;2023-03-13T02:04:29;95668.06;;;2.73;90.16
18167;BME280;9208;42.688;23.404;2023-03-13T02:06:59;95667.06;;;2.67;89.68
18167;BME280;9208;42.688;23.404;2023-03-13T02:09:30;95663.00;;;2.59;89.92
18167;BME280;9208;42.688;23.404;2023-03-13T02:14:26;95668.41;;;2.59;89.30
18167;BME280;9208;42.688;23.404;2023-03-13T02:16:53;95669.09;;;2.63;90.04
18167;BME280;9208;42.688;23.404;2023-03-13T02:19:27;95675.78;;;2.59;90.25
18167;BME280;9208;42.688;23.404;2023-03-13T02:22:05;95678.91;;;2.57;90.57
18167;BME280;9208;42.688;23.404;2023-03-13T02:24:54;95674.41;;;2.51;91.12
18167;BME280;9208;42.688;23.404;2023-03-13T02:27:22;95667.31;;;2.57;91.68
18167;BME280;9208;42.688;23.404;2023-03-13T02:29:48;95676.19;;;2.73;92.31
18167;BME280;9208;42.688;23.404;2023-03-13T02:32:15;95669.00;;;2.67;93.34
18167;BME280;9208;42.688;23.404;2023-03-13T02:34:42;95671.78;;;2.63;93.52
18167;BME280;9208;42.688;23.404;2023-03-13T02:37:09;95678.56;;;2.71;93.48
18167;BME280;9208;42.688;23.404;2023-03-13T02:39:38;95684.34;;;2.89;92.96
18167;BME280;9208;42.688;23.404;2023-03-13T02:42:05;95687.47;;;2.88;93.36
18167;BME280;9208;42.688;23.404;2023-03-13T02:44:37;95694.06;;;2.87;94.19
18167;BME280;9208;42.688;23.404;2023-03-13T02:47:03;95692.97;;;2.84;94.23
18167;BME280;9208;42.688;23.404;2023-03-13T02:49:29;95707.53;;;2.90;93.58
18167;BME280;9208;42.688;23.404;2023-03-13T02:52:22;95712.56;;;2.72;94.42
18167;BME280;9208;42.688;23.404;2023-03-13T02:54:52;95713.91;;;2.64;94.68
18167;BME280;9208;42.688;23.404;2023-03-13T02:57:19;95704.22;;;2.47;95.54
18167;BME280;9208;42.688;23.404;2023-03-13T02:59:44;95705.22;;;2.37;97.20
18167;BME280;9208;42.688;23.404;2023-03-13T03:02:10;95702.06;;;2.23;97.53
18167;BME280;9208;42.688;23.404;2023-03-13T03:04:35;95699.69;;;2.25;96.87
18167;BME280;9208;42.688;23.404;2023-03-13T03:07:01;95695.50;;;2.20;97.02
18167;BME280;9208;42.688;23.404;2023-03-13T03:09:26;95699.97;;;2.30;96.85
18167;BME280;9208;42.688;23.404;2023-03-13T03:11:52;95706.91;;;2.31;96.43
18167;BME280;9208;42.688;23.404;2023-03-13T03:14:17;95708.00;;;2.34;95.90
18167;BME280;9208;42.688;23.404;2023-03-13T03:16:43;95704.88;;;2.35;95.97
18167;BME280;9208;42.688;23.404;2023-03-13T03:19:09;95717.50;;;2.22;96.67
18167;BME280;9208;42.688;23.404;2023-03-13T03:21:35;95724.09;;;2.21;96.03
18167;BME280;9208;42.688;23.404;2023-03-13T03:24:00;95727.84;;;2.27;95.80
18167;BME280;9208;42.688;23.404;2023-03-13T03:26:26;95740.34;;;2.21;96.42
18167;BME280;9208;42.688;23.404;2023-03-13T03:28:52;95754.19;;;2.23;96.26
18167;BME280;9208;42.688;23.404;2023-03-13T03:31:17;95755.59;;;2.31;95.52
18167;BME280;9208;42.688;23.404;2023-03-13T03:33:43;95761.47;;;2.26;96.03
18167;BME280;9208;42.688;23.404;2023-03-13T03:36:14;95770.41;;;2.23;96.58
18167;BME280;9208;42.688;23.404;2023-03-13T03:38:41;95772.44;;;2.19;95.81
18167;BME280;9208;42.688;23.404;2023-03-13T03:41:08;95767.88;;;2.16;96.24
18167;BME280;9208;42.688;23.404;2023-03-13T03:43:34;95776.03;;;2.13;95.57
18167;BME280;9208;42.688;23.404;2023-03-13T03:45:59;95783.81;;;2.11;95.63
18167;BME280;9208;42.688;23.404;2023-03-13T03:48:25;95804.19;;;2.15;95.68
18167;BME280;9208;42.688;23.404;2023-03-13T03:50:50;95808.88;;;1.92;96.97
18167;BME280;9208;42.688;23.404;2023-03-13T03:53:15;95808.81;;;1.95;96.56
18167;BME280;9208;42.688;23.404;2023-03-13T03:55:41;95813.50;;;1.91;95.46
18167;BME280;9208;42.688;23.404;2023-03-13T03:58:06;95807.16;;;1.78;96.14
18167;BME280;9208;42.688;23.404;2023-03-13T04:00:32;95813.13;;;1.70;96.93
18167;BME280;9208;42.688;23.404;2023-03-13T04:02:57;95828.25;;;1.64;95.90
18167;BME280;9208;42.688;23.404;2023-03-13T04:05:23;95821.56;;;1.72;97.10
18167;BME280;9208;42.688;23.404;2023-03-13T04:07:49;95823.56;;;1.68;97.05
18167;BME280;9208;42.688;23.404;2023-03-13T04:10:14;95835.44;;;1.74;95.89
18167;BME280;9208;42.688;23.404;2023-03-13T04:12:40;95852.16;;;1.88;95.00
18167;BME280;9208;42.688;23.404;2023-03-13T04:15:05;95855.81;;;1.78;93.98
18167;BME280;9208;42.688;23.404;2023-03-13T04:17:31;95865.16;;;1.74;95.01
18167;BME280;9208;42.688;23.404;2023-03-13T04:19:57;95876.38;;;1.72;93.08
18167;BME280;9208;42.688;23.404;2023-03-13T04:22:23;95871.31;;;1.74;93.23
18167;BME280;9208;42.688;23.404;2023-03-13T04:24:48;95884.00;;;1.54;93.18
18167;BME280;9208;42.688;23.404;2023-03-13T04:27:14;95882.00;;;1.58;93.00
18167;BME280;9208;42.688;23.404;2023-03-13T04:29:39;95877.16;;;1.46;95.21
18167;BME280;9208;42.688;23.404;2023-03-13T04:32:05;95889.22;;;1.42;94.71
18167;BME280;9208;42.688;23.404;2023-03-13T04:34:30;95892.59;;;1.46;94.93
18167;BME280;9208;42.688;23.404;2023-03-13T04:36:56;95902.00;;;1.38;94.70
18167;BME280;9208;42.688;23.404;2023-03-13T04:39:21;95907.41;;;1.38;95.95
18167;BME280;9208;42.688;23.404;2023-03-13T04:41:51;95906.75;;;1.27;96.00
18167;BME280;9208;42.688;23.404;2023-03-13T04:44:16;95914.81;;;1.30;96.03
18167;BME280;9208;42.688;23.404;2023-03-13T04:46:41;95916.31;;;1.35;98.24
18167;BME280;9208;42.688;23.404;2023-03-13T04:49:07;95938.25;;;1.37;97.61
18167;BME280;9208;42.688;23.404;2023-03-13T04:51:32;95950.97;;;1.40;96.38
18167;BME280;9208;42.688;23.404;2023-03-13T04:53:58;95939.38;;;1.39;95.21
18167;BME280;9208;42.688;23.404;2023-03-13T04:56:25;95954.06;;;1.38;96.06
18167;BME280;9208;42.688;23.404;2023-03-13T04:58:51;95954.72;;;1.46;95.21
18167;BME280;9208;42.688;23.404;2023-03-13T05:01:17;95953.38;;;1.31;95.46
18167;BME280;9208;42.688;23.404;2023-03-13T05:03:42;95950.69;;;1.31;96.03
18167;BME280;9208;42.688;23.404;2023-03-13T05:06:07;95961.44;;;1.34;95.91
18167;BME280;9208;42.688;23.404;2023-03-13T05:08:33;95958.72;;;1.38;96.23
18167;BME280;9208;42.688;23.404;2023-03-13T05:11:00;95961.16;;;1.55;98.36
18167;BME280;9208;42.688;23.404;2023-03-13T05:13:26;95955.94;;;1.71;98.60
18167;BME280;9208;42.688;23.404;2023-03-13T05:15:52;95957.72;;;1.81;98.38
18167;BME280;9208;42.688;23.404;2023-03-13T05:18:17;95970.59;;;1.70;99.20
18167;BME280;9208;42.688;23.404;2023-03-13T05:20:43;95987.50;;;1.78;98.71
18167;BME280;9208;42.688;23.404;2023-03-13T05:23:08;95988.03;;;1.92;98.51
18167;BME280;9208;42.688;23.404;2023-03-13T05:25:33;95989.38;;;2.07;97.75
18167;BME280;9208;42.688;23.404;2023-03-13T05:27:59;95994.28;;;2.16;97.45
18167;BME280;9208;42.688;23.404;2023-03-13T05:30:24;95994.88;;;2.00;98.82
18167;BME280;9208;42.688;23.404;2023-03-13T05:32:50;95999.94;;;1.98;99.54
18167;BME280;9208;42.688;23.404;2023-03-13T05:35:15;96001.00;;;2.04;98.98
18167;BME280;9208;42.688;23.404;2023-03-13T05:37:41;96007.88;;;2.09;99.35
18167;BME280;9208;42.688;23.404;2023-03-13T05:40:08;96015.97;;;2.12;98.91
18167;BME280;9208;42.688;23.404;2023-03-13T05:42:34;96022.38;;;2.22;99.52
18167;BME280;9208;42.688;23.404;2023-03-13T05:45:00;96017.38;;;2.20;99.88
18167;BME280;9208;42.688;23.404;2023-03-13T05:47:25;96029.28;;;2.26;99.72
18167;BME280;9208;42.688;23.404;2023-03-13T05:49:50;96019.63;;;2.25;99.57
18167;BME280;9208;42.688;23.404;2023-03-13T05:52:16;96029.34;;;2.23;99.07
18167;BME280;9208;42.688;23.404;2023-03-13T05:54:41;96033.00;;;2.09;100.00
18167;BME280;9208;42.688;23.404;2023-03-13T05:57:06;96032.69;;;2.04;100.00
18167;BME280;9208;42.688;23.404;2023-03-13T05:59:32;96030.44;;;1.99;100.00
18167;BME280;9208;42.688;23.404;2023-03-13T06:01:57;96042.75;;;2.03;100.00
18167;BME280;9208;42.688;23.404;2023-03-13T06:04:23;96030.44;;;1.99;100.00
18167;BME280;9208;42.688;23.404;2023-03-13T06:06:48;96061.94;;;2.12;100.00
18167;BME280;9208;42.688;23.404;2023-03-13T06:09:14;96055.22;;;2.20;99.65
18167;BME280;9208;42.688;23.404;2023-03-13T06:11:39;96052.91;;;2.22;99.36
18167;BME280;9208;42.688;23.404;2023-03-13T06:14:05;96063.66;;;2.26;98.81
18167;BME280;9208;42.688;23.404;2023-03-13T06:16:31;96064.22;;;2.40;98.49
18167;BME280;9208;42.688;23.404;2023-03-13T06:18:57;96063.34;;;2.47;98.01
18167;BME280;9208;42.688;23.404;2023-03-13T06:21:23;96060.25;;;2.48;98.21
18167;BME280;9208;42.688;23.404;2023-03-13T06:23:48;96065.59;;;2.52;98.84
18167;BME280;9208;42.688;23.404;2023-03-13T06:26:14;96060.88;;;2.56;98.42
18167;BME280;9208;42.688;23.404;2023-03-13T06:28:39;96074.34;;;2.59;98.52
18167;BME280;9208;42.688;23.404;2023-03-13T06:31:06;96074.72;;;2.61;98.41
18167;BME280;9208;42.688;23.404;2023-03-13T06:33:32;96074.13;;;2.73;98.09
18167;BME280;9208;42.688;23.404;2023-03-13T06:36:02;96066.72;;;2.77;97.95
18167;BME280;9208;42.688;23.404;2023-03-13T06:38:28;96062.47;;;2.76;97.83
18167;BME280;9208;42.688;23.404;2023-03-13T06:40:54;96045.19;;;2.70;98.15
18167;BME280;9208;42.688;23.404;2023-03-13T06:43:20;96047.19;;;2.66;98.69
18167;BME280;9208;42.688;23.404;2023-03-13T06:45:45;96045.91;;;2.74;98.60
18167;BME280;9208;42.688;23.404;2023-03-13T06:48:11;96049.19;;;2.85;98.40
18167;BME280;9208;42.688;23.404;2023-03-13T06:50:37;96050.59;;;2.93;98.25
18167;BME280;9208;42.688;23.404;2023-03-13T06:53:03;96058.88;;;3.06;97.87
18167;BME280;9208;42.688;23.404;2023-03-13T06:55:28;96064.09;;;3.16;97.65
18167;BME280;9208;42.688;23.404;2023-03-13T06:57:54;96067.84;;;3.22;94.64
18167;BME280;9208;42.688;23.404;2023-03-13T07:00:20;96067.78;;;3.26;95.12
18167;BME280;9208;42.688;23.404;2023-03-13T07:02:45;96061.34;;;3.39;94.53
18167;BME280;9208;42.688;23.404;2023-03-13T07:05:11;96058.16;;;3.44;94.19
18167;BME280;9208;42.688;23.404;2023-03-13T07:07:39;96054.25;;;3.45;94.00
18167;BME280;9208;42.688;23.404;2023-03-13T07:10:06;96054.22;;;3.49;94.15
18167;BME280;9208;42.688;23.404;2023-03-13T07:12:33;96060.25;;;3.56;93.27
18167;BME280;9208;42.688;23.404;2023-03-13T07:14:59;96059.06;;;3.57;92.35
18167;BME280;9208;42.688;23.404;2023-03-13T07:17:24;96047.19;;;3.51;91.47
18167;BME280;9208;42.688;23.404;2023-03-13T07:19:50;96071.63;;;3.67;90.91
18167;BME280;9208;42.688;23.404;2023-03-13T07:22:15;96061.00;;;3.76;90.42
18167;BME280;9208;42.688;23.404;2023-03-13T07:24:40;96041.47;;;3.65;91.84
18167;BME280;9208;42.688;23.404;2023-03-13T07:27:06;96046.31;;;3.74;91.83
18167;BME280;9208;42.688;23.404;2023-03-13T07:29:31;96055.84;;;3.82;91.10
18167;BME280;9208;42.688;23.404;2023-03-13T07:31:56;96047.44;;;3.76;90.44
18167;BME280;9208;42.688;23.404;2023-03-13T07:34:23;96063.59;;;3.99;89.77
18167;BME280;9208;42.688;23.404;2023-03-13T07:36:49;96048.78;;;4.04;90.08
18167;BME280;9208;42.688;23.404;2023-03-13T07:39:15;96061.94;;;4.05;89.58
18167;BME280;9208;42.688;23.404;2023-03-13T07:41:40;96068.88;;;4.06;88.79
18167;BME280;9208;42.688;23.404;2023-03-13T07:44:06;96064.34;;;4.19;88.02
18167;BME280;9208;42.688;23.404;2023-03-13T07:46:32;96066.38;;;4.31;86.98
18167;BME280;9208;42.688;23.404;2023-03-13T07:48:57;96089.31;;;4.46;84.78
18167;BME280;9208;42.688;23.404;2023-03-13T07:51:24;96091.13;;;4.53;84.65
18167;BME280;9208;42.688;23.404;2023-03-13T07:53:51;96083.38;;;4.51;84.82
18167;BME280;9208;42.688;23.404;2023-03-13T07:56:20;96076.06;;;4.48;84.77
18167;BME280;9208;42.688;23.404;2023-03-13T07:58:46;96070.91;;;4.54;84.40
18167;BME280;9208;42.688;23.404;2023-03-13T08:01:15;96074.06;;;4.68;83.82
18167;BME280;9208;42.688;23.404;2023-03-13T08:03:41;96074.75;;;4.72;83.47
18167;BME280;9208;42.688;23.404;2023-03-13T08:06:13;96074.56;;;4.79;82.86
18167;BME280;9208;42.688;23.404;2023-03-13T08:08:40;96067.63;;;4.78;83.70
18167;BME280;9208;42.688;23.404;2023-03-13T08:11:08;96063.78;;;4.92;83.29
18167;BME280;9208;42.688;23.404;2023-03-13T08:13:35;96070.97;;;4.98;81.82
18167;BME280;9208;42.688;23.404;2023-03-13T08:16:14;96067.00;;;5.03;81.47
18167;BME280;9208;42.688;23.404;2023-03-13T08:18:43;96079.81;;;5.18;80.72
18167;BME280;9208;42.688;23.404;2023-03-13T08:21:14;96072.66;;;5.24;80.57
18167;BME280;9208;42.688;23.404;2023-03-13T08:23:40;96090.56;;;5.38;78.82
18167;BME280;9208;42.688;23.404;2023-03-13T08:26:11;96092.50;;;5.37;79.05
18167;BME280;9208;42.688;23.404;2023-03-13T08:28:38;96092.34;;;5.44;79.75
18167;BME280;9208;42.688;23.404;2023-03-13T08:31:12;96097.47;;;5.55;79.32
18167;BME280;9208;42.688;23.404;2023-03-13T08:33:39;96092.53;;;5.66;78.25
18167;BME280;9208;42.688;23.404;2023-03-13T08:38:44;96113.81;;;5.83;77.93
18167;BME280;9208;42.688;23.404;2023-03-13T08:41:11;96125.13;;;5.82;76.44
18167;BME280;9208;42.688;23.404;2023-03-13T08:43:37;96122.03;;;5.96;76.22
18167;BME280;9208;42.688;23.404;2023-03-13T08:46:02;96132.53;;;6.10;76.10
18167;BME280;9208;42.688;23.404;2023-03-13T08:48:28;96128.19;;;6.25;76.13
18167;BME280;9208;42.688;23.404;2023-03-13T08:51:04;96122.44;;;6.35;76.41
18167;BME280;9208;42.688;23.404;2023-03-13T08:53:30;96113.53;;;6.47;75.60
18167;BME280;9208;42.688;23.404;2023-03-13T08:55:56;96127.66;;;6.42;74.16
18167;BME280;9208;42.688;23.404;2023-03-13T08:58:22;96128.56;;;6.52;74.21
18167;BME280;9208;42.688;23.404;2023-03-13T09:00:48;96131.41;;;6.61;74.00
18167;BME280;9208;42.688;23.404;2023-03-13T09:03:13;96129.66;;;6.67;73.74
18167;BME280;9208;42.688;23.404;2023-03-13T09:05:39;96132.16;;;6.74;73.39
18167;BME280;9208;42.688;23.404;2023-03-13T09:08:05;96136.28;;;6.78;72.98
18167;BME280;9208;42.688;23.404;2023-03-13T09:10:34;96143.06;;;6.86;72.88
18167;BME280;9208;42.688;23.404;2023-03-13T09:13:00;96134.56;;;6.84;73.04
18167;BME280;9208;42.688;23.404;2023-03-13T09:15:25;96130.31;;;6.83;73.72
18167;BME280;9208;42.688;23.404;2023-03-13T09:17:50;96128.13;;;6.91;73.89
18167;BME280;9208;42.688;23.404;2023-03-13T09:20:16;96127.34;;;7.03;73.66
18167;BME280;9208;42.688;23.404;2023-03-13T09:22:43;96122.31;;;7.14;73.24
18167;BME280;9208;42.688;23.404;2023-03-13T09:25:09;96116.31;;;7.19;73.03
18167;BME280;9208;42.688;23.404;2023-03-13T09:27:35;96126.53;;;7.27;72.77
18167;BME280;9208;42.688;23.404;2023-03-13T09:30:00;96132.34;;;7.29;72.48
18167;BME280;9208;42.688;23.404;2023-03-13T09:32:25;96139.09;;;7.37;71.69
18167;BME280;9208;42.688;23.404;2023-03-13T09:34:51;96143.97;;;7.42;71.51
18167;BME280;9208;42.688;23.404;2023-03-13T09:37:16;96146.16;;;7.47;71.38
18167;BME280;9208;42.688;23.404;2023-03-13T09:39:42;96154.72;;;7.58;71.11
18167;BME280;9208;42.688;23.404;2023-03-13T09:42:23;96165.72;;;7.67;71.16
18167;BME280;9208;42.688;23.404;2023-03-13T09:45:03;96156.09;;;7.75;70.61
18167;BME280;9208;42.688;23.404;2023-03-13T09:47:45;96144.94;;;7.82;71.02
18167;BME280;9208;42.688;23.404;2023-03-13T09:54:12;96149.59;;;7.94;70.00
18167;BME280;9208;42.688;23.404;2023-03-13T09:56:23;96150.88;;;8.02;69.77
18167;BME280;9208;42.688;23.404;2023-03-13T09:58:54;96155.31;;;7.87;69.80
18167;BME280;9208;42.688;23.404;2023-03-13T10:01:25;96144.19;;;8.03;69.53
18167;BME280;9208;42.688;23.404;2023-03-13T10:04:04;96147.75;;;8.13;69.43
18167;BME280;9208;42.688;23.404;2023-03-13T10:06:34;96149.59;;;8.16;69.45
18167;BME280;9208;42.688;23.404;2023-03-13T10:09:04;96140.66;;;8.15;69.67
18167;BME280;9208;42.688;23.404;2023-03-13T10:11:38;96126.78;;;8.10;69.71
18167;BME280;9208;42.688;23.404;2023-03-13T10:14:26;96132.41;;;8.28;69.78
18167;BME280;9208;42.688;23.404;2023-03-13T10:19:37;96131.47;;;8.52;68.31
18167;BME280;9208;42.688;23.404;2023-03-13T10:22:12;96131.44;;;8.43;67.59
18167;BME280;9208;42.688;23.404;2023-03-13T10:24:59;96125.28;;;8.30;67.61
18167;BME280;9208;42.688;23.404;2023-03-13T10:27:27;96121.19;;;8.26;67.21
18167;BME280;9208;42.688;23.404;2023-03-13T10:29:52;96114.34;;;8.30;67.32
18167;BME280;9208;42.688;23.404;2023-03-13T10:32:18;96111.22;;;8.41;67.28
18167;BME280;9208;42.688;23.404;2023-03-13T10:37:15;96138.66;;;8.59;65.91
18167;BME280;9208;42.688;23.404;2023-03-13T10:39:40;96125.63;;;8.63;66.30
18167;BME280;9208;42.688;23.404;2023-03-13T10:42:15;96123.69;;;8.72;66.48
18167;BME280;9208;42.688;23.404;2023-03-13T10:44:43;96127.59;;;8.93;65.73
18167;BME280;9208;42.688;23.404;2023-03-13T10:47:11;96112.53;;;8.97;65.96
18167;BME280;9208;42.688;23.404;2023-03-13T10:49:49;96094.16;;;8.89;66.02
18167;BME280;9208;42.688;23.404;2023-03-13T10:52:40;96098.88;;;8.97;66.27
18167;BME280;9208;42.688;23.404;2023-03-13T10:55:11;96098.59;;;9.04;66.13
18167;BME280;9208;42.688;23.404;2023-03-13T10:57:37;96091.75;;;9.09;66.02
18167;BME280;9208;42.688;23.404;2023-03-13T11:00:34;96084.78;;;9.08;66.63
18167;BME280;9208;42.688;23.404;2023-03-13T11:03:01;96077.31;;;8.99;66.60
18167;BME280;9208;42.688;23.404;2023-03-13T11:05:37;96074.59;;;9.08;66.86
18167;BME280;9208;42.688;23.404;2023-03-13T11:10:57;96076.31;;;9.33;65.50
18167;BME280;9208;42.688;23.404;2023-03-13T11:13:40;96082.53;;;9.42;65.38
18167;BME280;9208;42.688;23.404;2023-03-13T11:16:24;96070.06;;;9.23;65.79
18167;BME280;9208;42.688;23.404;2023-03-13T11:24:07;96072.38;;;9.52;64.82
18167;BME280;9208;42.688;23.404;2023-03-13T11:26:38;96089.88;;;9.63;63.50
18167;BME280;9208;42.688;23.404;2023-03-13T11:29:18;96078.94;;;9.63;63.66
18167;BME280;9208;42.688;23.404;2023-03-13T11:31:57;96065.69;;;9.71;64.11
18167;BME280;9208;42.688;23.404;2023-03-13T11:34:55;96073.00;;;9.83;63.88
18167;BME280;9208;42.688;23.404;2023-03-13T11:37:27;96069.19;;;9.89;63.93
18167;BME280;9208;42.688;23.404;2023-03-13T11:40:21;96058.06;;;10.02;63.41
18167;BME280;9208;42.688;23.404;2023-03-13T11:46:20;96062.47;;;9.99;62.54
18167;BME280;9208;42.688;23.404;2023-03-13T11:57:12;96044.50;;;10.26;63.09
18167;BME280;9208;42.688;23.404;2023-03-13T12:02:19;96042.19;;;10.33;62.30
18167;BME280;9208;42.688;23.404;2023-03-13T12:09:57;96021.31;;;10.36;62.31
18167;BME280;9208;42.688;23.404;2023-03-13T12:12:36;96018.25;;;10.43;61.69
18167;BME280;9208;42.688;23.404;2023-03-13T12:18:05;96009.19;;;10.60;62.10
18167;BME280;9208;42.688;23.404;2023-03-13T12:20:41;96002.78;;;10.63;61.30
18167;BME280;9208;42.688;23.404;2023-03-13T12:23:23;96004.56;;;10.66;61.82
18167;BME280;9208;42.688;23.404;2023-03-13T12:25:58;96001.78;;;10.75;61.55
18167;BME280;9208;42.688;23.404;2023-03-13T12:28:42;96006.19;;;10.82;60.61
18167;BME280;9208;42.688;23.404;2023-03-13T12:36:17;96014.13;;;11.03;60.19
18167;BME280;9208;42.688;23.404;2023-03-13T12:41:39;96035.44;;;11.32;58.57
18167;BME280;9208;42.688;23.404;2023-03-13T12:44:15;96030.06;;;11.37;59.27
18167;BME280;9208;42.688;23.404;2023-03-13T12:46:46;96023.72;;;11.46;59.61
18167;BME280;9208;42.688;23.404;2023-03-13T13:00:15;96050.66;;;11.80;56.77
18167;BME280;9208;42.688;23.404;2023-03-13T13:02:44;96053.41;;;11.80;56.24
18167;BME280;9208;42.688;23.404;2023-03-13T13:05:17;96064.19;;;11.69;55.74
18167;BME280;9208;42.688;23.404;2023-03-13T13:07:52;96071.53;;;11.63;55.82
18167;BME280;9208;42.688;23.404;2023-03-13T13:10:26;96074.69;;;11.70;55.88
18167;BME280;9208;42.688;23.404;2023-03-13T13:15:46;96065.91;;;11.81;54.67
18167;BME280;9208;42.688;23.404;2023-03-13T13:18:32;96068.00;;;11.86;55.12
18167;BME280;9208;42.688;23.404;2023-03-13T13:23:40;96063.66;;;11.94;54.65
18167;BME280;9208;42.688;23.404;2023-03-13T13:28:54;96059.47;;;11.84;54.76
18167;BME280;9208;42.688;23.404;2023-03-13T13:36:59;96056.78;;;11.51;54.24
18167;BME280;9208;42.688;23.404;2023-03-13T13:41:53;96041.78;;;11.61;54.29
18167;BME280;9208;42.688;23.404;2023-03-13T13:44:24;96044.56;;;11.76;54.30
18167;BME280;9208;42.688;23.404;2023-03-13T13:46:50;96044.69;;;11.81;54.49
18167;BME280;9208;42.688;23.404;2023-03-13T13:49:28;96044.59;;;11.90;54.53
18167;BME280;9208;42.688;23.404;2023-03-13T13:57:30;96036.94;;;11.94;54.42
18167;BME280;9208;42.688;23.404;2023-03-13T14:02:36;96039.06;;;12.14;53.69
18167;BME280;9208;42.688;23.404;2023-03-13T14:05:15;96052.56;;;12.03;53.12
18167;BME280;9208;42.688;23.404;2023-03-13T14:07:47;96049.91;;;11.94;52.66
18167;BME280;9208;42.688;23.404;2023-03-13T14:10:47;96048.09;;;11.91;52.90
18167;BME280;9208;42.688;23.404;2023-03-13T14:13:17;96044.72;;;11.96;53.24
18167;BME280;9208;42.688;23.404;2023-03-13T14:19:22;96037.50;;;12.13;53.50
18167;BME280;9208;42.688;23.404;2023-03-13T14:21:49;96021.69;;;12.22;52.98
18167;BME280;9208;42.688;23.404;2023-03-13T14:24:15;96035.25;;;12.26;52.74
18167;BME280;9208;42.688;23.404;2023-03-13T14:26:42;96026.72;;;12.24;52.94
18167;BME280;9208;42.688;23.404;2023-03-13T14:29:15;96027.66;;;12.35;53.27
18167;BME280;9208;42.688;23.404;2023-03-13T14:31:49;96024.03;;;12.44;53.95
18167;BME280;9208;42.688;23.404;2023-03-13T14:34:15;96027.94;;;12.52;53.85
18167;BME280;9208;42.688;23.404;2023-03-13T14:36:53;96026.00;;;12.58;53.97
18167;BME280;9208;42.688;23.404;2023-03-13T14:42:14;96023.66;;;12.65;53.51
18167;BME280;9208;42.688;23.404;2023-03-13T14:44:40;96025.72;;;12.70;53.20
18167;BME280;9208;42.688;23.404;2023-03-13T14:47:22;96024.13;;;12.64;53.17
18167;BME280;9208;42.688;23.404;2023-03-13T14:49:55;96018.91;;;12.66;53.59
18167;BME280;9208;42.688;23.404;2023-03-13T14:52:25;96011.88;;;12.65;54.08